Air Navigation Services of Czech Republic
Airport: LKPJ Updated:  01.04.2020 01:00:28  UTC
 METAR LKPJ 01.04. 01:00 ...
METAR LKPJ 010100Z AUTO 30004KT CAVOK M04/M07 Q1025=